createdAt,value
2019-01-18T00:01:07.737Z,3.37
2019-01-18T00:03:35.087Z,4.17
2019-01-18T00:06:02.625Z,2.57
2019-01-18T00:08:30.118Z,4.77
2019-01-18T00:10:57.536Z,2.03
2019-01-18T00:13:25.009Z,3.47
2019-01-18T00:15:52.454Z,10.63
2019-01-18T00:18:19.875Z,5.53
2019-01-18T00:20:47.265Z,3.60
2019-01-18T00:23:14.688Z,5.50
2019-01-18T00:25:42.165Z,2.00
2019-01-18T00:28:09.663Z,2.30
2019-01-18T00:30:37.145Z,7.63
2019-01-18T00:33:04.656Z,3.50
2019-01-18T00:35:32.121Z,2.93
2019-01-18T00:37:59.571Z,2.90
2019-01-18T00:40:26.943Z,3.30
2019-01-18T00:42:54.290Z,7.10
2019-01-18T00:45:21.740Z,5.40
2019-01-18T00:47:49.153Z,3.23
2019-01-18T00:50:16.833Z,2.33
2019-01-18T00:52:44.210Z,2.80
2019-01-18T00:55:11.781Z,6.60
2019-01-18T00:57:39.239Z,4.53
2019-01-18T01:00:13.378Z,2.10
2019-01-18T01:02:40.772Z,8.17
2019-01-18T01:05:09.454Z,0.77
2019-01-18T01:07:36.924Z,5.13
2019-01-18T01:10:05.304Z,1.60
2019-01-18T01:12:32.790Z,2.33
2019-01-18T01:15:00.244Z,3.13
2019-01-18T01:17:27.772Z,2.13
2019-01-18T01:19:55.264Z,5.30
2019-01-18T01:22:22.664Z,5.63
2019-01-18T01:24:49.978Z,7.27
2019-01-18T01:27:17.445Z,12.60
2019-01-18T01:29:44.888Z,4.33
2019-01-18T01:32:12.226Z,3.83
2019-01-18T01:34:39.669Z,1.70
2019-01-18T01:37:07.062Z,7.37
2019-01-18T01:39:34.428Z,7.23
2019-01-18T01:42:01.928Z,1.87
2019-01-18T01:44:29.368Z,8.10
2019-01-18T01:46:56.722Z,2.20
2019-01-18T01:49:24.180Z,6.90
2019-01-18T01:51:51.548Z,3.53
2019-01-18T01:54:18.984Z,3.73
2019-01-18T01:56:46.402Z,4.47
2019-01-18T01:59:13.818Z,4.40
2019-01-18T02:01:41.217Z,4.50
2019-01-18T02:04:09.919Z,4.03
2019-01-18T02:06:37.257Z,4.80
2019-01-18T02:09:06.089Z,6.73
2019-01-18T02:11:33.544Z,6.67
2019-01-18T02:14:00.909Z,5.90
2019-01-18T02:16:28.369Z,1.87
2019-01-18T02:18:55.834Z,2.93
2019-01-18T02:21:23.217Z,2.00
2019-01-18T02:23:50.580Z,11.33
2019-01-18T02:26:18.039Z,2.30
2019-01-18T02:28:45.514Z,3.70
2019-01-18T02:31:12.977Z,4.70
2019-01-18T02:33:40.442Z,9.30
2019-01-18T02:36:07.903Z,3.50
2019-01-18T02:38:35.339Z,3.73
2019-01-18T02:41:02.673Z,2.93
2019-01-18T02:43:30.188Z,4.50
2019-01-18T02:45:57.665Z,4.33
2019-01-18T02:48:25.103Z,4.67
2019-01-18T02:50:52.570Z,2.90
2019-01-18T02:53:19.928Z,11.33
2019-01-18T02:55:47.382Z,6.03
2019-01-18T02:58:14.820Z,4.97
2019-01-18T03:00:42.206Z,3.10
2019-01-18T03:03:09.679Z,7.70
2019-01-18T03:05:37.152Z,6.43
2019-01-18T03:08:04.496Z,6.77
2019-01-18T03:10:31.922Z,5.27
2019-01-18T03:12:59.255Z,5.63
2019-01-18T03:15:26.627Z,6.07
2019-01-18T03:17:54.090Z,5.43
2019-01-18T03:20:21.471Z,5.83
2019-01-18T03:22:49.014Z,10.63
2019-01-18T03:25:20.358Z,12.93
2019-01-18T03:27:47.838Z,2.73
2019-01-18T03:30:18.889Z,2.77
2019-01-18T03:32:45.083Z,7.20
2019-01-18T03:35:13.945Z,6.10
2019-01-18T03:37:41.425Z,3.43
2019-01-18T03:40:09.998Z,8.27
2019-01-18T03:42:37.482Z,7.30
2019-01-18T03:45:06.436Z,7.87
2019-01-18T03:47:33.791Z,2.70
2019-01-18T03:50:01.239Z,3.67
2019-01-18T03:52:28.727Z,12.97
2019-01-18T03:54:56.207Z,5.70
2019-01-18T03:57:23.682Z,3.00
2019-01-18T03:59:51.069Z,4.73
2019-01-18T04:02:18.421Z,9.07
2019-01-18T04:04:45.891Z,3.87
2019-01-18T04:07:13.390Z,4.80
2019-01-18T04:09:40.830Z,9.13
2019-01-18T04:12:08.321Z,7.87
2019-01-18T04:14:35.752Z,2.17
2019-01-18T04:17:03.069Z,10.90
2019-01-18T04:19:30.529Z,7.87
2019-01-18T04:21:58.006Z,8.70
2019-01-18T04:24:25.420Z,3.60
2019-01-18T04:26:52.834Z,5.50
2019-01-18T04:29:20.193Z,6.63
2019-01-18T04:31:47.555Z,6.50
2019-01-18T04:34:15.003Z,8.53
2019-01-18T04:36:42.466Z,8.70
2019-01-18T04:39:09.829Z,4.13
2019-01-18T04:41:37.183Z,4.60
2019-01-18T04:44:04.640Z,5.73
2019-01-18T04:46:32.099Z,5.93
2019-01-18T04:48:59.561Z,3.30
2019-01-18T04:51:27.010Z,5.53
2019-01-18T04:53:54.501Z,3.43
2019-01-18T04:56:21.955Z,5.80
2019-01-18T04:58:49.455Z,7.47
2019-01-18T05:01:16.845Z,3.57
2019-01-18T05:03:44.278Z,10.73
2019-01-18T05:06:11.901Z,4.33
2019-01-18T05:08:39.281Z,5.57
2019-01-18T05:11:06.698Z,3.23
2019-01-18T05:13:34.084Z,4.40
2019-01-18T05:16:02.818Z,6.70
2019-01-18T05:18:30.274Z,5.77
2019-01-18T05:20:57.757Z,6.17
2019-01-18T05:23:25.185Z,22.87
2019-01-18T05:25:52.661Z,12.90
2019-01-18T05:28:20.053Z,22.53
2019-01-18T05:30:48.013Z,13.00
2019-01-18T05:33:15.504Z,12.97
2019-01-18T05:35:42.965Z,11.57
2019-01-18T05:38:10.304Z,16.20
2019-01-18T05:40:37.805Z,6.17
2019-01-18T05:43:05.231Z,4.27
2019-01-18T05:45:32.602Z,5.77
2019-01-18T05:48:01.176Z,9.33
2019-01-18T05:50:29.312Z,5.80
2019-01-18T05:52:56.939Z,5.90
2019-01-18T05:55:24.609Z,3.87
2019-01-18T05:57:52.140Z,3.20
2019-01-18T06:01:02.239Z,10.40
2019-01-18T06:03:29.684Z,4.10
2019-01-18T06:05:57.019Z,5.93
2019-01-18T06:08:24.393Z,5.43
2019-01-18T06:10:51.842Z,4.77
2019-01-18T06:13:19.164Z,4.57
2019-01-18T06:15:46.520Z,7.20
2019-01-18T06:18:13.976Z,2.73
2019-01-18T06:20:41.421Z,4.27
2019-01-18T06:23:08.895Z,3.87
2019-01-18T06:25:36.364Z,5.60
2019-01-18T06:28:03.885Z,2.40
2019-01-18T06:30:31.262Z,3.27
2019-01-18T06:32:58.777Z,9.50
2019-01-18T06:35:26.211Z,3.07
2019-01-18T06:37:53.704Z,7.10
2019-01-18T06:40:21.167Z,3.37
2019-01-18T06:42:48.618Z,9.23
2019-01-18T06:45:17.385Z,7.87
2019-01-18T06:47:44.802Z,13.20
2019-01-18T06:50:14.042Z,19.33
2019-01-18T06:52:44.250Z,35.40
2019-01-18T06:55:12.043Z,4.70
2019-01-18T06:57:39.540Z,6.10
2019-01-18T07:00:21.860Z,12.23
2019-01-18T07:02:49.313Z,8.57
2019-01-18T07:05:16.755Z,8.50
2019-01-18T07:07:44.291Z,7.07
2019-01-18T07:10:13.443Z,12.63
2019-01-18T07:12:40.816Z,13.97
2019-01-18T07:15:09.913Z,21.70
2019-01-18T07:17:37.295Z,9.10
2019-01-18T07:20:04.959Z,8.17
2019-01-18T07:22:32.414Z,14.10
2019-01-18T07:24:59.772Z,15.00
2019-01-18T07:27:27.216Z,7.73
2019-01-18T07:29:54.724Z,13.47
2019-01-18T07:32:22.158Z,5.87
2019-01-18T07:34:49.612Z,6.73
2019-01-18T07:37:17.024Z,7.97
2019-01-18T07:39:44.628Z,18.23
2019-01-18T07:42:12.106Z,10.50
2019-01-18T07:44:39.452Z,9.93
2019-01-18T07:47:06.844Z,9.07
2019-01-18T07:49:34.216Z,8.70
2019-01-18T07:52:01.602Z,9.13
2019-01-18T07:54:28.966Z,7.93
2019-01-18T07:56:56.328Z,7.00
2019-01-18T07:59:23.770Z,7.73
2019-01-18T08:01:51.160Z,10.53
2019-01-18T08:04:18.624Z,12.60
2019-01-18T08:06:45.962Z,8.13
2019-01-18T08:09:13.443Z,8.37
2019-01-18T08:11:40.791Z,41.93
2019-01-18T08:14:08.257Z,10.83
2019-01-18T08:16:35.663Z,11.00
2019-01-18T08:19:03.118Z,12.93
2019-01-18T08:21:30.461Z,11.07
2019-01-18T08:23:57.833Z,15.33
2019-01-18T08:26:25.264Z,7.83
2019-01-18T08:28:52.747Z,8.73
2019-01-18T08:31:20.178Z,8.33
2019-01-18T08:33:47.631Z,14.50
2019-01-18T08:36:15.173Z,5.60
2019-01-18T08:38:42.643Z,7.53
2019-01-18T08:41:10.042Z,9.53
2019-01-18T08:43:37.503Z,21.53
2019-01-18T08:46:07.363Z,12.30
2019-01-18T08:48:39.247Z,9.77
2019-01-18T08:51:06.675Z,15.30
2019-01-18T08:53:34.096Z,10.73
2019-01-18T08:56:01.447Z,7.57
2019-01-18T08:58:28.909Z,13.73
2019-01-18T09:00:56.293Z,12.87
2019-01-18T09:03:23.789Z,5.23
2019-01-18T09:05:51.302Z,9.93
2019-01-18T09:08:18.751Z,6.47
2019-01-18T09:10:46.607Z,13.00
2019-01-18T09:13:14.205Z,12.30
2019-01-18T09:15:41.685Z,5.80
2019-01-18T09:18:09.121Z,15.83
2019-01-18T09:20:36.567Z,9.43
2019-01-18T09:23:04.057Z,10.47
2019-01-18T09:25:31.385Z,13.17
2019-01-18T09:27:58.736Z,9.83
2019-01-18T09:30:29.888Z,11.70
2019-01-18T09:32:57.239Z,8.73
2019-01-18T09:35:25.437Z,9.40
2019-01-18T09:37:53.705Z,9.93
2019-01-18T09:40:23.437Z,9.13
2019-01-18T09:42:50.909Z,12.30
2019-01-18T09:45:18.407Z,16.27
2019-01-18T09:47:48.560Z,10.10
2019-01-18T09:50:27.094Z,12.47
2019-01-18T09:52:54.939Z,15.03
2019-01-18T09:55:22.413Z,19.97
2019-01-18T09:57:49.884Z,15.90
2019-01-18T10:00:22.861Z,22.40
2019-01-18T10:02:50.237Z,12.77
2019-01-18T10:05:18.410Z,13.23
2019-01-18T10:07:46.021Z,12.47
2019-01-18T10:10:15.592Z,10.70
2019-01-18T10:12:43.100Z,15.17
2019-01-18T10:15:13.669Z,9.27
2019-01-18T10:17:41.119Z,13.43
2019-01-18T10:20:10.908Z,8.60
2019-01-18T10:22:38.357Z,12.80
2019-01-18T10:25:07.463Z,10.43
2019-01-18T10:27:34.913Z,16.90
2019-01-18T10:30:02.249Z,21.13
2019-01-18T10:32:29.721Z,14.13
2019-01-18T10:34:57.230Z,12.97
2019-01-18T10:37:25.850Z,11.23
2019-01-18T10:39:53.351Z,9.53
2019-01-18T10:42:20.813Z,15.43
2019-01-18T10:44:48.296Z,8.80
2019-01-18T10:47:15.773Z,16.00
2019-01-18T10:49:43.201Z,11.57
2019-01-18T10:52:10.688Z,11.40
2019-01-18T10:54:38.042Z,10.70
2019-01-18T10:57:05.540Z,9.43
2019-01-18T10:59:33.035Z,10.97
2019-01-18T11:02:06.942Z,8.60
2019-01-18T11:04:29.799Z,14.93
2019-01-18T11:06:57.266Z,22.60
2019-01-18T11:09:24.728Z,12.03
2019-01-18T11:11:52.160Z,22.03
2019-01-18T11:14:19.616Z,11.67
2019-01-18T11:16:47.084Z,11.80
2019-01-18T11:19:14.574Z,13.53
2019-01-18T11:21:42.127Z,14.17
2019-01-18T11:24:10.404Z,17.40
2019-01-18T11:26:37.863Z,16.60
2019-01-18T11:29:05.328Z,16.13
2019-01-18T11:31:32.790Z,10.77
2019-01-18T11:34:00.244Z,10.03
2019-01-18T11:36:27.614Z,17.10
2019-01-18T11:38:54.962Z,19.50
2019-01-18T11:41:22.413Z,8.80
2019-01-18T11:43:49.867Z,16.20
2019-01-18T11:46:17.315Z,14.17
2019-01-18T11:48:44.740Z,9.43
2019-01-18T11:51:12.122Z,11.80
2019-01-18T11:53:40.860Z,8.17
2019-01-18T11:56:08.452Z,12.97
2019-01-18T11:58:35.868Z,10.90
2019-01-18T12:01:03.452Z,16.03
2019-01-18T12:03:30.876Z,12.13
2019-01-18T12:05:58.256Z,9.83
2019-01-18T12:08:25.662Z,9.90
2019-01-18T12:10:53.003Z,9.77
2019-01-18T12:13:20.462Z,16.63
2019-01-18T12:15:48.105Z,12.97
2019-01-18T12:18:15.735Z,11.33
2019-01-18T12:20:43.173Z,10.83
2019-01-18T12:23:10.590Z,11.03
2019-01-18T12:25:38.008Z,15.23
2019-01-18T12:28:05.996Z,16.93
2019-01-18T12:30:34.733Z,14.17
2019-01-18T12:33:02.246Z,13.37
2019-01-18T12:35:29.920Z,13.80
2019-01-18T12:37:57.307Z,13.57
2019-01-18T12:40:24.810Z,17.60
2019-01-18T12:42:52.320Z,20.40
2019-01-18T12:45:20.550Z,9.83
2019-01-18T12:47:47.910Z,15.20
2019-01-18T12:50:19.352Z,10.37
2019-01-18T12:52:46.733Z,9.77
2019-01-18T12:55:14.148Z,12.67
2019-01-18T12:57:41.592Z,10.27
2019-01-18T13:00:12.054Z,20.57
2019-01-18T13:02:39.415Z,13.63
2019-01-18T13:05:11.209Z,17.80
2019-01-18T13:07:38.570Z,13.07
2019-01-18T13:10:11.975Z,14.00
2019-01-18T13:12:35.835Z,17.60
2019-01-18T13:15:06.089Z,13.53
2019-01-18T13:17:33.544Z,19.60
2019-01-18T13:20:00.978Z,14.77
2019-01-18T13:22:28.439Z,16.60
2019-01-18T13:24:55.853Z,18.67
2019-01-18T13:27:23.283Z,13.87
2019-01-18T13:29:51.317Z,10.37
2019-01-18T13:32:18.703Z,14.70
2019-01-18T13:34:46.168Z,13.53
2019-01-18T13:37:13.704Z,24.13
2019-01-18T13:39:41.073Z,17.73
2019-01-18T13:42:08.552Z,14.00
2019-01-18T13:44:36.039Z,22.10
2019-01-18T13:47:03.525Z,13.03
2019-01-18T13:49:30.885Z,19.63
2019-01-18T13:51:58.316Z,17.67
2019-01-18T13:54:25.773Z,17.83
2019-01-18T13:56:53.235Z,18.43
2019-01-18T13:59:20.732Z,18.37
2019-01-18T14:01:49.390Z,19.00
2019-01-18T14:04:16.840Z,16.73
2019-01-18T14:06:44.215Z,23.23
2019-01-18T14:09:11.665Z,18.23
2019-01-18T14:11:39.146Z,17.93
2019-01-18T14:14:06.487Z,20.23
2019-01-18T14:16:33.994Z,17.80
2019-01-18T14:19:01.454Z,19.03
2019-01-18T14:21:28.769Z,18.33
2019-01-18T14:23:56.243Z,15.13
2019-01-18T14:26:23.584Z,13.80
2019-01-18T14:28:50.995Z,15.63
2019-01-18T14:31:18.441Z,14.63
2019-01-18T14:33:45.813Z,14.77
2019-01-18T14:36:14.608Z,19.93
2019-01-18T14:38:42.137Z,23.97
2019-01-18T14:41:09.490Z,17.33
2019-01-18T14:43:36.987Z,20.03
2019-01-18T14:46:04.452Z,14.27
2019-01-18T14:48:31.887Z,20.90
2019-01-18T14:50:59.340Z,15.30
2019-01-18T14:53:26.829Z,18.67
2019-01-18T14:55:54.173Z,21.57
2019-01-18T14:58:24.606Z,18.10
2019-01-18T15:00:50.916Z,20.23
2019-01-18T15:03:18.338Z,14.83
2019-01-18T15:05:45.721Z,23.33
2019-01-18T15:08:13.186Z,15.30
2019-01-18T15:10:40.642Z,20.20
2019-01-18T15:13:14.290Z,19.10
2019-01-18T15:15:41.761Z,22.43
2019-01-18T15:18:09.108Z,18.07
2019-01-18T15:20:36.765Z,16.77
2019-01-18T15:23:04.668Z,22.30
2019-01-18T15:25:32.000Z,16.63
2019-01-18T15:28:00.903Z,17.37
2019-01-18T15:30:29.527Z,19.50
2019-01-18T15:32:56.969Z,16.00
2019-01-18T15:35:29.751Z,15.53
2019-01-18T15:37:57.256Z,19.70
2019-01-18T15:40:25.940Z,15.30
2019-01-18T15:42:53.613Z,16.20
2019-01-18T15:45:21.090Z,17.63
2019-01-18T15:47:48.460Z,25.60
2019-01-18T15:50:24.918Z,23.53
2019-01-18T15:52:52.424Z,22.63
2019-01-18T15:55:20.071Z,15.83
2019-01-18T15:57:47.445Z,19.90
2019-01-18T16:00:24.126Z,27.63
2019-01-18T16:02:51.612Z,12.83
2019-01-18T16:05:19.080Z,17.47
2019-01-18T16:07:46.617Z,14.63
2019-01-18T16:10:20.779Z,22.23
2019-01-18T16:12:48.308Z,20.90
2019-01-18T16:15:16.265Z,20.60
2019-01-18T16:17:44.559Z,20.43
2019-01-18T16:20:14.244Z,13.20
2019-01-18T16:22:41.622Z,24.60
2019-01-18T16:25:12.904Z,17.57
2019-01-18T16:27:40.303Z,20.13
2019-01-18T16:30:11.356Z,16.23
2019-01-18T16:32:38.838Z,19.83
2019-01-18T16:35:07.498Z,20.30
2019-01-18T16:37:34.975Z,20.70
2019-01-18T16:40:02.566Z,21.83
2019-01-18T16:42:30.354Z,17.10
2019-01-18T16:44:57.848Z,15.53
2019-01-18T16:47:25.196Z,21.80
2019-01-18T16:49:52.687Z,17.10
2019-01-18T16:52:20.054Z,26.10
2019-01-18T16:54:47.512Z,16.20
2019-01-18T16:57:14.924Z,24.63
2019-01-18T16:59:42.322Z,29.97
2019-01-18T17:02:09.676Z,21.50
2019-01-18T17:04:37.144Z,24.13
2019-01-18T17:07:04.598Z,15.23
2019-01-18T17:09:32.068Z,12.03
2019-01-18T17:11:59.498Z,18.67
2019-01-18T17:14:26.842Z,14.57
2019-01-18T17:16:54.310Z,18.47
2019-01-18T17:19:21.700Z,17.60
2019-01-18T17:21:50.514Z,15.13
2019-01-18T17:24:20.880Z,27.03
2019-01-18T17:26:48.386Z,27.37
2019-01-18T17:29:15.852Z,20.47
2019-01-18T17:31:43.218Z,20.90
2019-01-18T17:34:10.651Z,17.30
2019-01-18T17:37:10.156Z,19.90
2019-01-18T17:39:54.884Z,19.60
2019-01-18T17:42:59.489Z,11.93
2019-01-18T17:45:50.672Z,14.70
2019-01-18T17:48:30.011Z,14.27
2019-01-18T17:51:23.477Z,17.03
2019-01-18T17:54:09.030Z,16.97
2019-01-18T17:57:18.504Z,13.27
2019-01-18T18:00:14.072Z,14.03
2019-01-18T18:03:07.710Z,17.07
2019-01-18T18:06:04.471Z,14.63
2019-01-18T18:09:00.390Z,21.60
2019-01-18T18:12:15.786Z,20.50
2019-01-18T18:14:51.869Z,16.23
2019-01-18T18:17:46.575Z,10.10
2019-01-18T18:20:44.659Z,13.40
2019-01-18T18:23:53.913Z,9.47
2019-01-18T18:26:45.543Z,15.10
2019-01-18T18:29:53.126Z,18.43
2019-01-18T18:33:26.631Z,20.80
2019-01-18T18:36:57.139Z,9.23
2019-01-18T18:40:12.637Z,10.33
2019-01-18T18:43:15.516Z,13.47
2019-01-18T18:46:23.576Z,13.57
2019-01-18T18:49:16.773Z,20.67
2019-01-18T18:52:26.177Z,12.80
2019-01-18T18:55:47.731Z,18.10
2019-01-18T19:11:23.641Z,15.73
2019-01-18T19:14:33.244Z,15.60
2019-01-18T19:17:34.727Z,14.20
2019-01-18T19:20:49.937Z,13.47
2019-01-18T19:24:04.900Z,20.30
2019-01-18T19:27:12.623Z,19.70
2019-01-18T19:30:06.713Z,9.00
2019-01-18T19:33:11.995Z,11.50
2019-01-18T19:36:21.499Z,18.67
2019-01-18T19:39:23.777Z,12.83
2019-01-18T19:42:36.463Z,15.90
2019-01-18T19:45:44.954Z,13.30
2019-01-18T19:48:56.457Z,15.80
2019-01-18T19:51:57.417Z,18.20
2019-01-18T19:54:42.423Z,14.47
2019-01-18T19:57:50.443Z,19.47
2019-01-18T20:00:53.073Z,18.03
2019-01-18T20:03:54.779Z,18.30
2019-01-18T20:07:01.296Z,16.37
2019-01-18T20:10:10.616Z,13.63
2019-01-18T20:13:15.751Z,15.20
2019-01-18T20:15:59.455Z,14.37
2019-01-18T20:18:52.105Z,14.63
2019-01-18T20:21:55.874Z,22.87
2019-01-18T20:25:01.188Z,19.33
2019-01-18T20:28:06.830Z,22.50
2019-01-18T20:31:12.464Z,13.30
2019-01-18T20:34:18.395Z,15.07
2019-01-18T20:37:13.264Z,14.17
2019-01-18T20:40:38.941Z,18.57
2019-01-18T20:43:21.258Z,19.93
2019-01-18T20:46:54.888Z,18.73
2019-01-18T20:50:18.115Z,22.33
2019-01-18T20:53:24.639Z,14.30
2019-01-18T20:56:31.236Z,19.93
2019-01-18T20:59:13.346Z,14.00
2019-01-18T21:02:01.520Z,19.67
2019-01-18T21:05:04.975Z,19.13
2019-01-18T21:08:10.486Z,13.67
2019-01-18T21:11:38.042Z,25.17
2019-01-18T21:14:46.108Z,21.17
2019-01-18T21:17:58.687Z,21.77
2019-01-18T21:21:05.246Z,17.23
2019-01-18T21:24:22.658Z,16.70
2019-01-18T21:27:24.112Z,23.13
2019-01-18T21:30:11.201Z,19.77
2019-01-18T21:33:14.408Z,17.80
2019-01-18T21:36:05.653Z,19.17
2019-01-18T21:39:13.472Z,18.50
2019-01-18T21:42:12.524Z,16.63
2019-01-18T21:45:27.108Z,13.40
2019-01-18T21:48:57.620Z,13.57
2019-01-18T21:51:49.248Z,17.00
2019-01-18T21:55:13.758Z,14.10
2019-01-18T21:57:59.345Z,17.73
2019-01-18T22:01:07.184Z,16.43
2019-01-18T22:03:45.684Z,16.67
2019-01-18T22:06:32.293Z,14.33
2019-01-18T22:09:30.950Z,18.23
2019-01-18T22:12:18.568Z,20.87
2019-01-18T22:15:34.091Z,20.23
2019-01-18T22:18:09.084Z,12.07
2019-01-18T22:21:11.196Z,15.47
2019-01-18T22:24:00.846Z,14.70
2019-01-18T22:26:57.034Z,14.97
2019-01-18T22:30:18.279Z,13.47
2019-01-18T22:32:59.976Z,23.07
2019-01-18T22:36:09.778Z,18.07
2019-01-18T22:39:09.266Z,14.00
2019-01-18T22:42:19.337Z,13.47
2019-01-18T22:45:16.143Z,17.47
2019-01-18T22:48:21.503Z,15.83
2019-01-18T22:51:41.900Z,13.07
2019-01-18T22:54:42.762Z,16.60
2019-01-18T22:57:35.528Z,10.93
2019-01-18T23:01:07.069Z,12.17
2019-01-18T23:04:28.069Z,14.77
2019-01-18T23:07:18.038Z,12.00
2019-01-18T23:10:36.528Z,13.63
2019-01-18T23:14:13.476Z,12.70
2019-01-18T23:17:16.817Z,9.83
2019-01-18T23:20:25.465Z,13.50
2019-01-18T23:23:30.191Z,9.00
2019-01-18T23:26:24.510Z,16.03
2019-01-18T23:29:20.220Z,9.53
2019-01-18T23:32:23.525Z,8.40
2019-01-18T23:35:34.981Z,9.67
2019-01-18T23:38:17.113Z,14.83
2019-01-18T23:41:34.726Z,9.30
2019-01-18T23:44:31.147Z,15.97
2019-01-18T23:47:35.510Z,8.70
2019-01-18T23:50:37.061Z,9.00
2019-01-18T23:53:15.566Z,15.83
2019-01-18T23:56:25.519Z,18.03
2019-01-18T23:59:59.231Z,12.40
